Terminal Aerodrome Forecast
Issued by NWS

Home | Current Version | Previous Version | Graphics & Text | Print | Product List | Glossary On
Versions: 1 2 3 4 5 6 7 8 9 10 11 12 13 14 15 16 17 18 19 20
000
FTUS43 KBIS 280018 AAA
TAFJMS
TAF AMD
KJMS 280018Z 2800/2824 31013KT P6SM VCSH BKN120
     FM280100 31015KT P6SM -SHRA VCTS BKN090CB
      TEMPO 2801/2802 VRB20G35KT -TSRA BKN080CB
     FM280200 33010KT P6SM SCT120
     FM280400 30008KT P6SM SKC
     FM281500 31018KT P6SM FEW250
     FM281700 31022G32KT P6SM BKN045=

USA.gov is the U.S. government's official web portal to all federal, state and local government web resources and services.